Green Pond, SC (29446)

1:20 AM EDT on May 04, 2015 (GMT -0400)
NERRS | | Change Station
CLOSE
Current Station
Personal Weather Station
Location: Green Pond, SC
Elevation: 5 ft
Nearby Weather Stations

Elev 5 ft 32.56 °N, 80.45 °W | Updated 9 hours ago

Partly Cloudy
Partly Cloudy
57 °F
Feels Like 57 °F
N
2
Wind Variable Wind from ESE
Gusts mph

Today
High -- | Low -- °F
--% Chance of Precip.
Yesterday
High -- | Low -- °F
Precip. -- in
6:32 AM 8:05 PM
Full, 100% visible
Pressure 30.24 in
Visibility 10.0 miles
Clouds Clear
Dew Point 57 °F
Humidity 99%
Rainfall in
Snow Depth Not available.
UV 0 out of 12
Pollen 8.20 out of 12
Air Quality Not available.
Flu Activity Local Activity
METAR KNBC 040456Z AUTO 00000KT 10SM CLR 17/16 A3024 RMK AO2 SLP239 T01720156 402780122 $

More Conditions Fewer Conditions

Pressure 30.24 in
Visibility 10.0 miles
Clouds Clear
Dew Point 57 °F
Humidity 99%
Rainfall in
Snow Depth Not available.
UV 0 out of 12
Pollen 8.20 out of 12
Air Quality Not available.
Flu Activity Local Activity
METAR KNBC 040456Z AUTO 00000KT 10SM CLR 17/16 A3024 RMK AO2 SLP239 T01720156 402780122 $

More Conditions Fewer Conditions

Nepal has a long way to go to dig out and rebuild from a devastating earthquake. We have teamed up with several charities and organizations to make contributing to the relief effort as easy as possible.
How you can help: Portlight Strategies | Red Cross

10-Day Weather Forecast

Almanac

Astronomy

May. 04, 2015 Rise Set
Actual Time
Civil Twilight
Nautical Twilight
Astronomical Twilight
Moon
Length of Visible Light
Length of Day
Tomorrow will be .
, % of the Moon is Illuminated

Today's Extremes

State Highs State Lows

Community

WunderPhotos

Upload Photos

1,818,533 photos uploaded!

WunderBlogs® & News

Nearby

Air Quality

  Air Quality AQ Index Pollutant
Not available.

Snow Depth

Station Depth Elevation

Earthquake Activity

City Distance Mag. Time & Date
Minimum magnitude displayed is 2.5.

Coastal Water Temperatures

Place Temperature

Stations

Nearby Weather Stations

Station Location Temp. Windchill Dew Point Humidity Wind Precip. Elev Updated Type